sensor_id;sensor_type;location;lat;lon;timestamp;temperature;humidity
3842;DHT22;1936;47.074;15.336;2022-09-20T00:00:48;6.10;99.90
3842;DHT22;1936;47.074;15.336;2022-09-20T00:02:51;6.20;99.90
3842;DHT22;1936;47.074;15.336;2022-09-20T00:04:55;6.20;99.90
3842;DHT22;1936;47.074;15.336;2022-09-20T00:06:58;6.10;99.90
3842;DHT22;1936;47.074;15.336;2022-09-20T00:09:02;6.20;99.90
3842;DHT22;1936;47.074;15.336;2022-09-20T00:11:07;6.20;99.90
3842;DHT22;1936;47.074;15.336;2022-09-20T00:13:12;6.20;99.90
3842;DHT22;1936;47.074;15.336;2022-09-20T00:15:17;6.10;99.90
3842;DHT22;1936;47.074;15.336;2022-09-20T00:17:21;6.20;99.90
3842;DHT22;1936;47.074;15.336;2022-09-20T00:19:24;6.30;99.90
3842;DHT22;1936;47.074;15.336;2022-09-20T00:21:29;6.30;99.90
3842;DHT22;1936;47.074;15.336;2022-09-20T00:23:33;6.40;99.90
3842;DHT22;1936;47.074;15.336;2022-09-20T00:25:37;6.40;99.90
3842;DHT22;1936;47.074;15.336;2022-09-20T00:27:40;6.40;99.90
3842;DHT22;1936;47.074;15.336;2022-09-20T00:29:44;6.40;99.90
3842;DHT22;1936;47.074;15.336;2022-09-20T00:31:48;6.40;99.90
3842;DHT22;1936;47.074;15.336;2022-09-20T00:33:53;6.40;99.90
3842;DHT22;1936;47.074;15.336;2022-09-20T00:36:14;6.40;99.90
3842;DHT22;1936;47.074;15.336;2022-09-20T00:38:17;6.40;99.90
3842;DHT22;1936;47.074;15.336;2022-09-20T00:40:22;6.40;99.90
3842;DHT22;1936;47.074;15.336;2022-09-20T00:42:28;6.40;99.90
3842;DHT22;1936;47.074;15.336;2022-09-20T00:46:48;6.30;99.90
3842;DHT22;1936;47.074;15.336;2022-09-20T00:48:54;6.40;99.90
3842;DHT22;1936;47.074;15.336;2022-09-20T00:55:10;6.30;99.90
3842;DHT22;1936;47.074;15.336;2022-09-20T00:57:13;6.20;99.90
3842;DHT22;1936;47.074;15.336;2022-09-20T00:59:20;6.20;99.90
3842;DHT22;1936;47.074;15.336;2022-09-20T01:01:24;6.20;99.90
3842;DHT22;1936;47.074;15.336;2022-09-20T01:03:30;6.10;99.90
3842;DHT22;1936;47.074;15.336;2022-09-20T01:05:35;6.10;99.90
3842;DHT22;1936;47.074;15.336;2022-09-20T01:07:41;6.10;99.90
3842;DHT22;1936;47.074;15.336;2022-09-20T01:09:45;6.20;99.90
3842;DHT22;1936;47.074;15.336;2022-09-20T01:11:49;6.20;99.90
3842;DHT22;1936;47.074;15.336;2022-09-20T01:13:53;6.10;99.90
3842;DHT22;1936;47.074;15.336;2022-09-20T01:18:02;6.00;99.90
3842;DHT22;1936;47.074;15.336;2022-09-20T01:20:12;6.10;99.90
3842;DHT22;1936;47.074;15.336;2022-09-20T01:24:27;6.00;99.90
3842;DHT22;1936;47.074;15.336;2022-09-20T01:26:55;6.00;99.90
3842;DHT22;1936;47.074;15.336;2022-09-20T01:29:11;6.00;99.90
3842;DHT22;1936;47.074;15.336;2022-09-20T01:35:31;6.10;99.90
3842;DHT22;1936;47.074;15.336;2022-09-20T01:37:45;6.10;99.90
3842;DHT22;1936;47.074;15.336;2022-09-20T01:39:56;6.10;99.90
3842;DHT22;1936;47.074;15.336;2022-09-20T01:42:06;6.00;99.90
3842;DHT22;1936;47.074;15.336;2022-09-20T01:44:15;6.10;99.90
3842;DHT22;1936;47.074;15.336;2022-09-20T01:46:29;6.20;99.90
3842;DHT22;1936;47.074;15.336;2022-09-20T01:48:36;6.20;99.90
3842;DHT22;1936;47.074;15.336;2022-09-20T01:50:57;6.10;99.90
3842;DHT22;1936;47.074;15.336;2022-09-20T01:53:37;6.10;99.90
3842;DHT22;1936;47.074;15.336;2022-09-20T02:02:59;6.00;99.90
3842;DHT22;1936;47.074;15.336;2022-09-20T02:07:46;5.90;99.90
3842;DHT22;1936;47.074;15.336;2022-09-20T02:10:22;5.80;99.90
3842;DHT22;1936;47.074;15.336;2022-09-20T02:14:52;5.90;99.90
3842;DHT22;1936;47.074;15.336;2022-09-20T02:17:09;5.90;99.90
3842;DHT22;1936;47.074;15.336;2022-09-20T02:19:39;5.80;99.90
3842;DHT22;1936;47.074;15.336;2022-09-20T02:23:55;5.60;99.90
3842;DHT22;1936;47.074;15.336;2022-09-20T02:26:19;5.70;99.90
3842;DHT22;1936;47.074;15.336;2022-09-20T02:28:33;5.60;99.90
3842;DHT22;1936;47.074;15.336;2022-09-20T02:30:49;5.60;99.90
3842;DHT22;1936;47.074;15.336;2022-09-20T02:33:10;5.60;99.90
3842;DHT22;1936;47.074;15.336;2022-09-20T02:35:22;5.60;99.90
3842;DHT22;1936;47.074;15.336;2022-09-20T02:37:46;5.60;99.90
3842;DHT22;1936;47.074;15.336;2022-09-20T02:40:00;5.60;99.90
3842;DHT22;1936;47.074;15.336;2022-09-20T02:42:11;5.50;99.90
3842;DHT22;1936;47.074;15.336;2022-09-20T02:44:25;5.50;99.90
3842;DHT22;1936;47.074;15.336;2022-09-20T02:48:44;5.50;99.90
3842;DHT22;1936;47.074;15.336;2022-09-20T02:50:55;5.50;99.90
3842;DHT22;1936;47.074;15.336;2022-09-20T02:53:10;5.40;99.90
3842;DHT22;1936;47.074;15.336;2022-09-20T02:55:20;5.40;99.90
3842;DHT22;1936;47.074;15.336;2022-09-20T02:57:35;5.50;99.90
3842;DHT22;1936;47.074;15.336;2022-09-20T02:59:48;5.50;99.90
3842;DHT22;1936;47.074;15.336;2022-09-20T03:02:05;5.40;99.90
3842;DHT22;1936;47.074;15.336;2022-09-20T03:06:29;5.40;99.90
3842;DHT22;1936;47.074;15.336;2022-09-20T03:08:41;5.40;99.90
3842;DHT22;1936;47.074;15.336;2022-09-20T03:13:13;5.50;99.90
3842;DHT22;1936;47.074;15.336;2022-09-20T03:15:28;5.50;99.90
3842;DHT22;1936;47.074;15.336;2022-09-20T03:17:40;5.40;99.90
3842;DHT22;1936;47.074;15.336;2022-09-20T03:20:01;5.40;99.90
3842;DHT22;1936;47.074;15.336;2022-09-20T03:22:26;5.40;99.90
3842;DHT22;1936;47.074;15.336;2022-09-20T03:24:41;5.50;99.90
3842;DHT22;1936;47.074;15.336;2022-09-20T03:26:52;5.50;99.90
3842;DHT22;1936;47.074;15.336;2022-09-20T03:29:02;5.50;99.90
3842;DHT22;1936;47.074;15.336;2022-09-20T03:31:21;5.60;99.90
3842;DHT22;1936;47.074;15.336;2022-09-20T03:33:35;5.60;99.90
3842;DHT22;1936;47.074;15.336;2022-09-20T03:35:54;5.70;99.90
3842;DHT22;1936;47.074;15.336;2022-09-20T03:38:15;5.70;99.90
3842;DHT22;1936;47.074;15.336;2022-09-20T03:41:03;5.80;99.90
3842;DHT22;1936;47.074;15.336;2022-09-20T03:45:43;5.80;99.90
3842;DHT22;1936;47.074;15.336;2022-09-20T03:48:04;5.90;99.90
3842;DHT22;1936;47.074;15.336;2022-09-20T03:50:32;5.90;99.90
3842;DHT22;1936;47.074;15.336;2022-09-20T03:58:25;5.90;99.90
3842;DHT22;1936;47.074;15.336;2022-09-20T04:00:44;5.90;99.90
3842;DHT22;1936;47.074;15.336;2022-09-20T04:03:11;5.90;99.90
3842;DHT22;1936;47.074;15.336;2022-09-20T04:05:18;5.90;99.90
3842;DHT22;1936;47.074;15.336;2022-09-20T04:07:32;5.90;99.90
3842;DHT22;1936;47.074;15.336;2022-09-20T04:09:59;6.00;99.90
3842;DHT22;1936;47.074;15.336;2022-09-20T04:12:11;6.00;99.90
3842;DHT22;1936;47.074;15.336;2022-09-20T04:14:25;6.00;99.90
3842;DHT22;1936;47.074;15.336;2022-09-20T04:16:39;6.10;99.90
3842;DHT22;1936;47.074;15.336;2022-09-20T04:20:54;6.10;99.90
3842;DHT22;1936;47.074;15.336;2022-09-20T04:23:01;6.10;99.90
3842;DHT22;1936;47.074;15.336;2022-09-20T04:25:13;6.10;99.90
3842;DHT22;1936;47.074;15.336;2022-09-20T04:27:24;6.00;99.90
3842;DHT22;1936;47.074;15.336;2022-09-20T04:29:35;6.10;99.90
3842;DHT22;1936;47.074;15.336;2022-09-20T04:31:44;6.00;99.90
3842;DHT22;1936;47.074;15.336;2022-09-20T04:38:25;6.00;99.90
3842;DHT22;1936;47.074;15.336;2022-09-20T04:40:45;5.80;99.90
3842;DHT22;1936;47.074;15.336;2022-09-20T04:46:07;5.70;99.90
3842;DHT22;1936;47.074;15.336;2022-09-20T04:53:16;5.60;99.90
3842;DHT22;1936;47.074;15.336;2022-09-20T04:55:50;5.50;99.90
3842;DHT22;1936;47.074;15.336;2022-09-20T05:00:18;5.50;99.90
3842;DHT22;1936;47.074;15.336;2022-09-20T05:08:14;5.30;99.90
3842;DHT22;1936;47.074;15.336;2022-09-20T05:13:01;5.40;99.90
3842;DHT22;1936;47.074;15.336;2022-09-20T05:15:22;5.40;99.90
3842;DHT22;1936;47.074;15.336;2022-09-20T05:17:43;5.40;99.90
3842;DHT22;1936;47.074;15.336;2022-09-20T05:25:20;5.60;99.90
3842;DHT22;1936;47.074;15.336;2022-09-20T05:27:38;5.80;99.90
3842;DHT22;1936;47.074;15.336;2022-09-20T05:29:49;5.90;99.90
3842;DHT22;1936;47.074;15.336;2022-09-20T05:32:00;6.00;99.90
3842;DHT22;1936;47.074;15.336;2022-09-20T05:34:13;6.10;99.90
3842;DHT22;1936;47.074;15.336;2022-09-20T05:36:28;6.20;99.90
3842;DHT22;1936;47.074;15.336;2022-09-20T05:38:44;6.30;99.90
3842;DHT22;1936;47.074;15.336;2022-09-20T05:41:03;6.50;99.90
3842;DHT22;1936;47.074;15.336;2022-09-20T05:43:10;6.60;99.90
3842;DHT22;1936;47.074;15.336;2022-09-20T05:45:45;6.70;99.90
3842;DHT22;1936;47.074;15.336;2022-09-20T05:47:54;6.70;99.90
3842;DHT22;1936;47.074;15.336;2022-09-20T05:50:08;6.90;99.90
3842;DHT22;1936;47.074;15.336;2022-09-20T05:52:31;6.90;99.90
3842;DHT22;1936;47.074;15.336;2022-09-20T05:54:52;6.90;99.90
3842;DHT22;1936;47.074;15.336;2022-09-20T05:59:25;7.00;99.90
3842;DHT22;1936;47.074;15.336;2022-09-20T06:01:34;7.20;99.90
3842;DHT22;1936;47.074;15.336;2022-09-20T06:06:01;7.30;99.90
3842;DHT22;1936;47.074;15.336;2022-09-20T06:08:33;7.40;99.90
3842;DHT22;1936;47.074;15.336;2022-09-20T06:10:50;7.40;99.90
3842;DHT22;1936;47.074;15.336;2022-09-20T06:13:05;7.60;99.90
3842;DHT22;1936;47.074;15.336;2022-09-20T06:17:26;7.80;99.90
3842;DHT22;1936;47.074;15.336;2022-09-20T06:19:38;7.70;99.90
3842;DHT22;1936;47.074;15.336;2022-09-20T06:21:49;7.80;99.90
3842;DHT22;1936;47.074;15.336;2022-09-20T06:23:57;7.80;99.90
3842;DHT22;1936;47.074;15.336;2022-09-20T06:26:02;7.90;99.90
3842;DHT22;1936;47.074;15.336;2022-09-20T06:28:15;7.80;99.90
3842;DHT22;1936;47.074;15.336;2022-09-20T06:30:23;7.90;99.90
3842;DHT22;1936;47.074;15.336;2022-09-20T06:32:31;7.80;99.90
3842;DHT22;1936;47.074;15.336;2022-09-20T06:34:35;7.70;99.90
3842;DHT22;1936;47.074;15.336;2022-09-20T06:36:42;7.90;99.90
3842;DHT22;1936;47.074;15.336;2022-09-20T06:39:13;8.00;99.90
3842;DHT22;1936;47.074;15.336;2022-09-20T06:41:37;8.00;99.90
3842;DHT22;1936;47.074;15.336;2022-09-20T06:43:42;8.00;99.90
3842;DHT22;1936;47.074;15.336;2022-09-20T06:45:46;8.20;99.90
3842;DHT22;1936;47.074;15.336;2022-09-20T06:47:49;8.50;99.90
3842;DHT22;1936;47.074;15.336;2022-09-20T06:51:57;9.30;99.90
3842;DHT22;1936;47.074;15.336;2022-09-20T06:54:00;9.70;99.90
3842;DHT22;1936;47.074;15.336;2022-09-20T06:56:06;9.90;99.90
3842;DHT22;1936;47.074;15.336;2022-09-20T06:58:10;10.30;99.90
3842;DHT22;1936;47.074;15.336;2022-09-20T07:00:16;10.50;99.90
3842;DHT22;1936;47.074;15.336;2022-09-20T07:02:20;10.80;99.90
3842;DHT22;1936;47.074;15.336;2022-09-20T07:04:24;11.20;99.90
3842;DHT22;1936;47.074;15.336;2022-09-20T07:08:31;12.40;99.90
3842;DHT22;1936;47.074;15.336;2022-09-20T07:10:34;12.90;99.90
3842;DHT22;1936;47.074;15.336;2022-09-20T07:12:38;14.00;99.90
3842;DHT22;1936;47.074;15.336;2022-09-20T07:14:41;14.40;99.90
3842;DHT22;1936;47.074;15.336;2022-09-20T07:16:46;14.70;99.90
3842;DHT22;1936;47.074;15.336;2022-09-20T07:18:50;14.80;99.90
3842;DHT22;1936;47.074;15.336;2022-09-20T07:22:59;16.00;98.20
3842;DHT22;1936;47.074;15.336;2022-09-20T07:25:04;16.70;96.10
3842;DHT22;1936;47.074;15.336;2022-09-20T07:27:08;17.00;93.20
3842;DHT22;1936;47.074;15.336;2022-09-20T07:29:12;18.80;94.50
3842;DHT22;1936;47.074;15.336;2022-09-20T07:31:16;20.00;85.30
3842;DHT22;1936;47.074;15.336;2022-09-20T07:43:46;21.90;56.90
3842;DHT22;1936;47.074;15.336;2022-09-20T07:47:57;20.50;59.30
3842;DHT22;1936;47.074;15.336;2022-09-20T07:52:06;18.80;72.70
3842;DHT22;1936;47.074;15.336;2022-09-20T07:54:11;18.20;74.70
3842;DHT22;1936;47.074;15.336;2022-09-20T07:56:15;17.80;71.40
3842;DHT22;1936;47.074;15.336;2022-09-20T07:58:19;17.50;73.90
3842;DHT22;1936;47.074;15.336;2022-09-20T08:00:23;17.20;75.20
3842;DHT22;1936;47.074;15.336;2022-09-20T08:02:27;16.60;74.70
3842;DHT22;1936;47.074;15.336;2022-09-20T08:04:30;16.30;78.50
3842;DHT22;1936;47.074;15.336;2022-09-20T08:06:37;16.20;77.20
3842;DHT22;1936;47.074;15.336;2022-09-20T08:08:41;16.20;78.20
3842;DHT22;1936;47.074;15.336;2022-09-20T08:10:45;15.90;78.20
3842;DHT22;1936;47.074;15.336;2022-09-20T08:12:49;16.10;84.50
3842;DHT22;1936;47.074;15.336;2022-09-20T08:15:12;18.20;81.80
3842;DHT22;1936;47.074;15.336;2022-09-20T08:19:21;22.30;57.50
3842;DHT22;1936;47.074;15.336;2022-09-20T08:21:26;21.60;58.00
3842;DHT22;1936;47.074;15.336;2022-09-20T08:23:33;21.80;58.80
3842;DHT22;1936;47.074;15.336;2022-09-20T08:27:40;21.50;58.80
3842;DHT22;1936;47.074;15.336;2022-09-20T08:29:43;23.10;55.90
3842;DHT22;1936;47.074;15.336;2022-09-20T08:31:47;23.10;55.60
3842;DHT22;1936;47.074;15.336;2022-09-20T08:35:55;25.30;52.80
3842;DHT22;1936;47.074;15.336;2022-09-20T08:40:24;26.70;45.70
3842;DHT22;1936;47.074;15.336;2022-09-20T08:42:30;26.90;47.50
3842;DHT22;1936;47.074;15.336;2022-09-20T08:44:46;27.50;46.10
3842;DHT22;1936;47.074;15.336;2022-09-20T08:51:14;28.50;40.60
3842;DHT22;1936;47.074;15.336;2022-09-20T08:53:23;27.70;43.40
3842;DHT22;1936;47.074;15.336;2022-09-20T08:55:32;25.50;42.10
3842;DHT22;1936;47.074;15.336;2022-09-20T08:57:37;22.90;46.40
3842;DHT22;1936;47.074;15.336;2022-09-20T08:59:41;21.40;48.30
3842;DHT22;1936;47.074;15.336;2022-09-20T09:01:45;20.80;51.60
3842;DHT22;1936;47.074;15.336;2022-09-20T09:03:50;20.50;52.00
3842;DHT22;1936;47.074;15.336;2022-09-20T09:05:57;21.00;53.80
3842;DHT22;1936;47.074;15.336;2022-09-20T09:08:07;21.80;53.40
3842;DHT22;1936;47.074;15.336;2022-09-20T09:10:16;23.00;53.00
3842;DHT22;1936;47.074;15.336;2022-09-20T09:12:23;23.10;54.40
3842;DHT22;1936;47.074;15.336;2022-09-20T09:14:29;24.00;49.00
3842;DHT22;1936;47.074;15.336;2022-09-20T09:16:52;25.40;49.60
3842;DHT22;1936;47.074;15.336;2022-09-20T09:18:55;27.10;41.40
3842;DHT22;1936;47.074;15.336;2022-09-20T09:20:59;27.40;43.20
3842;DHT22;1936;47.074;15.336;2022-09-20T09:23:06;28.20;39.90
3842;DHT22;1936;47.074;15.336;2022-09-20T09:25:24;29.10;38.80
3842;DHT22;1936;47.074;15.336;2022-09-20T09:27:34;29.10;40.20
3842;DHT22;1936;47.074;15.336;2022-09-20T09:31:52;29.60;40.80
3842;DHT22;1936;47.074;15.336;2022-09-20T09:42:24;28.10;38.20
3842;DHT22;1936;47.074;15.336;2022-09-20T09:44:35;28.50;40.80
3842;DHT22;1936;47.074;15.336;2022-09-20T09:46:39;28.60;39.10
3842;DHT22;1936;47.074;15.336;2022-09-20T09:48:42;29.70;37.30
3842;DHT22;1936;47.074;15.336;2022-09-20T09:51:06;28.90;37.30
3842;DHT22;1936;47.074;15.336;2022-09-20T09:55:16;29.10;38.30
3842;DHT22;1936;47.074;15.336;2022-09-20T09:57:36;28.70;38.20
3842;DHT22;1936;47.074;15.336;2022-09-20T10:01:59;28.00;37.40
3842;DHT22;1936;47.074;15.336;2022-09-20T10:04:11;28.30;44.80
3842;DHT22;1936;47.074;15.336;2022-09-20T10:06:22;28.90;37.90
3842;DHT22;1936;47.074;15.336;2022-09-20T10:10:53;28.20;38.20
3842;DHT22;1936;47.074;15.336;2022-09-20T10:15:23;28.30;36.60
3842;DHT22;1936;47.074;15.336;2022-09-20T10:17:38;28.40;38.50
3842;DHT22;1936;47.074;15.336;2022-09-20T10:22:00;27.90;39.00
3842;DHT22;1936;47.074;15.336;2022-09-20T10:24:14;27.50;38.80
3842;DHT22;1936;47.074;15.336;2022-09-20T10:26:30;28.50;40.30
3842;DHT22;1936;47.074;15.336;2022-09-20T10:28:46;28.30;39.20
3842;DHT22;1936;47.074;15.336;2022-09-20T10:31:03;28.90;36.50
3842;DHT22;1936;47.074;15.336;2022-09-20T10:39:38;28.30;37.60
3842;DHT22;1936;47.074;15.336;2022-09-20T10:41:49;27.50;38.00
3842;DHT22;1936;47.074;15.336;2022-09-20T10:46:31;29.00;35.60
3842;DHT22;1936;47.074;15.336;2022-09-20T10:48:41;28.40;37.30
3842;DHT22;1936;47.074;15.336;2022-09-20T10:50:53;28.90;40.40
3842;DHT22;1936;47.074;15.336;2022-09-20T10:53:11;28.80;37.90
3842;DHT22;1936;47.074;15.336;2022-09-20T10:57:47;29.20;36.60
3842;DHT22;1936;47.074;15.336;2022-09-20T10:59:59;28.90;35.70
3842;DHT22;1936;47.074;15.336;2022-09-20T11:02:16;28.30;36.40
3842;DHT22;1936;47.074;15.336;2022-09-20T11:04:52;26.60;37.60
3842;DHT22;1936;47.074;15.336;2022-09-20T11:07:08;25.10;40.60
3842;DHT22;1936;47.074;15.336;2022-09-20T11:09:16;23.50;41.90
3842;DHT22;1936;47.074;15.336;2022-09-20T11:11:24;21.60;43.90
3842;DHT22;1936;47.074;15.336;2022-09-20T11:13:38;20.40;46.90
3842;DHT22;1936;47.074;15.336;2022-09-20T11:15:47;19.40;50.50
3842;DHT22;1936;47.074;15.336;2022-09-20T11:17:59;18.90;54.10
3842;DHT22;1936;47.074;15.336;2022-09-20T11:20:14;18.20;56.20
3842;DHT22;1936;47.074;15.336;2022-09-20T11:22:21;17.60;59.30
3842;DHT22;1936;47.074;15.336;2022-09-20T11:26:37;19.50;60.40
3842;DHT22;1936;47.074;15.336;2022-09-20T11:28:44;19.90;57.60
3842;DHT22;1936;47.074;15.336;2022-09-20T11:30:55;20.30;54.40
3842;DHT22;1936;47.074;15.336;2022-09-20T11:35:22;20.30;53.20
3842;DHT22;1936;47.074;15.336;2022-09-20T11:37:31;20.30;52.40
3842;DHT22;1936;47.074;15.336;2022-09-20T11:39:39;20.00;51.30
3842;DHT22;1936;47.074;15.336;2022-09-20T11:41:45;19.20;53.20
3842;DHT22;1936;47.074;15.336;2022-09-20T11:43:49;19.30;55.30
3842;DHT22;1936;47.074;15.336;2022-09-20T11:48:05;21.30;48.40
3842;DHT22;1936;47.074;15.336;2022-09-20T11:50:36;20.40;51.10
3842;DHT22;1936;47.074;15.336;2022-09-20T11:52:55;18.90;53.10
3842;DHT22;1936;47.074;15.336;2022-09-20T11:55:23;18.50;55.70
3842;DHT22;1936;47.074;15.336;2022-09-20T11:57:29;18.70;55.20
3842;DHT22;1936;47.074;15.336;2022-09-20T11:59:35;18.20;53.00
3842;DHT22;1936;47.074;15.336;2022-09-20T12:01:42;17.20;54.10
3842;DHT22;1936;47.074;15.336;2022-09-20T12:04:00;16.80;58.00
3842;DHT22;1936;47.074;15.336;2022-09-20T12:06:28;16.20;57.50
3842;DHT22;1936;47.074;15.336;2022-09-20T12:10:39;17.00;58.00
3842;DHT22;1936;47.074;15.336;2022-09-20T12:12:45;16.90;57.70
3842;DHT22;1936;47.074;15.336;2022-09-20T12:16:57;17.60;58.80
3842;DHT22;1936;47.074;15.336;2022-09-20T12:19:04;18.00;55.50
3842;DHT22;1936;47.074;15.336;2022-09-20T12:23:44;18.20;55.60
3842;DHT22;1936;47.074;15.336;2022-09-20T12:25:59;18.70;55.40
3842;DHT22;1936;47.074;15.336;2022-09-20T12:28:03;18.60;54.20
3842;DHT22;1936;47.074;15.336;2022-09-20T12:32:39;18.90;53.40
3842;DHT22;1936;47.074;15.336;2022-09-20T12:34:44;18.40;54.10
3842;DHT22;1936;47.074;15.336;2022-09-20T12:37:15;17.50;55.60
3842;DHT22;1936;47.074;15.336;2022-09-20T12:39:22;17.50;55.60
3842;DHT22;1936;47.074;15.336;2022-09-20T12:41:48;17.10;56.70
3842;DHT22;1936;47.074;15.336;2022-09-20T12:44:23;16.90;57.30
3842;DHT22;1936;47.074;15.336;2022-09-20T12:46:40;16.30;57.10
3842;DHT22;1936;47.074;15.336;2022-09-20T12:48:44;16.20;59.20
3842;DHT22;1936;47.074;15.336;2022-09-20T12:51:02;16.10;59.10
3842;DHT22;1936;47.074;15.336;2022-09-20T12:53:23;16.00;59.60
3842;DHT22;1936;47.074;15.336;2022-09-20T12:59:57;16.70;57.00
3842;DHT22;1936;47.074;15.336;2022-09-20T13:04:52;16.90;59.20
3842;DHT22;1936;47.074;15.336;2022-09-20T13:09:35;16.80;58.20
3842;DHT22;1936;47.074;15.336;2022-09-20T13:11:42;16.60;58.10
3842;DHT22;1936;47.074;15.336;2022-09-20T13:13:48;16.20;58.50
3842;DHT22;1936;47.074;15.336;2022-09-20T13:17:58;16.40;65.10
3842;DHT22;1936;47.074;15.336;2022-09-20T13:20:04;16.80;59.30
3842;DHT22;1936;47.074;15.336;2022-09-20T13:24:17;17.50;55.90
3842;DHT22;1936;47.074;15.336;2022-09-20T13:26:27;18.20;57.60
3842;DHT22;1936;47.074;15.336;2022-09-20T13:28:36;18.30;52.40
3842;DHT22;1936;47.074;15.336;2022-09-20T13:30:41;18.10;54.10
3842;DHT22;1936;47.074;15.336;2022-09-20T13:32:45;17.70;54.40
3842;DHT22;1936;47.074;15.336;2022-09-20T13:35:04;17.10;54.90
3842;DHT22;1936;47.074;15.336;2022-09-20T13:39:28;17.70;55.70
3842;DHT22;1936;47.074;15.336;2022-09-20T13:41:33;18.50;54.80
3842;DHT22;1936;47.074;15.336;2022-09-20T13:47:58;20.90;50.60
3842;DHT22;1936;47.074;15.336;2022-09-20T13:52:22;21.30;47.00
3842;DHT22;1936;47.074;15.336;2022-09-20T14:00:45;21.00;46.90
3842;DHT22;1936;47.074;15.336;2022-09-20T14:02:50;21.00;49.00
3842;DHT22;1936;47.074;15.336;2022-09-20T14:04:55;20.40;49.30
3842;DHT22;1936;47.074;15.336;2022-09-20T14:11:31;20.00;73.50
3842;DHT22;1936;47.074;15.336;2022-09-20T14:13:43;19.70;47.90
3842;DHT22;1936;47.074;15.336;2022-09-20T14:15:47;19.70;50.40
3842;DHT22;1936;47.074;15.336;2022-09-20T14:17:51;19.70;49.70
3842;DHT22;1936;47.074;15.336;2022-09-20T14:19:56;19.50;48.70
3842;DHT22;1936;47.074;15.336;2022-09-20T14:22:02;19.00;50.30
3842;DHT22;1936;47.074;15.336;2022-09-20T14:24:07;18.50;52.40
3842;DHT22;1936;47.074;15.336;2022-09-20T14:26:26;18.10;51.30
3842;DHT22;1936;47.074;15.336;2022-09-20T14:28:30;17.50;53.40
3842;DHT22;1936;47.074;15.336;2022-09-20T14:30:36;17.00;54.90
3842;DHT22;1936;47.074;15.336;2022-09-20T14:32:43;17.00;55.40
3842;DHT22;1936;47.074;15.336;2022-09-20T14:34:57;16.80;55.70
3842;DHT22;1936;47.074;15.336;2022-09-20T14:37:04;16.70;56.10
3842;DHT22;1936;47.074;15.336;2022-09-20T14:39:13;16.60;57.70
3842;DHT22;1936;47.074;15.336;2022-09-20T14:41:24;16.60;57.30
3842;DHT22;1936;47.074;15.336;2022-09-20T14:43:32;16.30;55.80
3842;DHT22;1936;47.074;15.336;2022-09-20T14:45:38;16.00;56.50
3842;DHT22;1936;47.074;15.336;2022-09-20T14:47:53;15.60;56.30
3842;DHT22;1936;47.074;15.336;2022-09-20T14:49:57;15.30;55.00
3842;DHT22;1936;47.074;15.336;2022-09-20T14:52:34;15.10;55.50
3842;DHT22;1936;47.074;15.336;2022-09-20T14:54:39;14.90;56.30
3842;DHT22;1936;47.074;15.336;2022-09-20T14:59:02;14.60;57.80
3842;DHT22;1936;47.074;15.336;2022-09-20T15:01:21;14.40;57.60
3842;DHT22;1936;47.074;15.336;2022-09-20T15:03:28;14.40;57.20
3842;DHT22;1936;47.074;15.336;2022-09-20T15:07:37;14.10;58.90
3842;DHT22;1936;47.074;15.336;2022-09-20T15:09:40;14.00;60.30
3842;DHT22;1936;47.074;15.336;2022-09-20T15:11:43;14.00;58.80
3842;DHT22;1936;47.074;15.336;2022-09-20T15:13:47;13.90;59.20
3842;DHT22;1936;47.074;15.336;2022-09-20T15:30:21;13.30;66.70
3842;DHT22;1936;47.074;15.336;2022-09-20T15:32:24;13.20;66.90
3842;DHT22;1936;47.074;15.336;2022-09-20T15:34:29;13.20;67.50
3842;DHT22;1936;47.074;15.336;2022-09-20T15:36:34;13.10;66.20
3842;DHT22;1936;47.074;15.336;2022-09-20T15:38:38;13.00;67.50
3842;DHT22;1936;47.074;15.336;2022-09-20T15:42:46;12.70;67.70
3842;DHT22;1936;47.074;15.336;2022-09-20T15:44:49;12.70;69.80
3842;DHT22;1936;47.074;15.336;2022-09-20T15:46:53;12.70;71.10
3842;DHT22;1936;47.074;15.336;2022-09-20T15:48:58;12.70;71.10
3842;DHT22;1936;47.074;15.336;2022-09-20T15:55:13;12.50;73.30
3842;DHT22;1936;47.074;15.336;2022-09-20T15:57:16;12.50;73.00
3842;DHT22;1936;47.074;15.336;2022-09-20T15:59:20;12.60;71.20
3842;DHT22;1936;47.074;15.336;2022-09-20T16:01:25;12.60;71.20
3842;DHT22;1936;47.074;15.336;2022-09-20T16:03:29;12.60;69.80
3842;DHT22;1936;47.074;15.336;2022-09-20T16:07:39;12.60;69.60
3842;DHT22;1936;47.074;15.336;2022-09-20T16:15:58;12.50;73.00
3842;DHT22;1936;47.074;15.336;2022-09-20T16:18:02;12.50;74.00
3842;DHT22;1936;47.074;15.336;2022-09-20T16:22:27;12.40;74.50
3842;DHT22;1936;47.074;15.336;2022-09-20T16:26:36;12.20;77.10
3842;DHT22;1936;47.074;15.336;2022-09-20T16:30:55;12.20;77.30
3842;DHT22;1936;47.074;15.336;2022-09-20T16:32:58;12.10;77.80
3842;DHT22;1936;47.074;15.336;2022-09-20T16:35:07;12.10;77.00
3842;DHT22;1936;47.074;15.336;2022-09-20T16:37:11;12.00;76.70
3842;DHT22;1936;47.074;15.336;2022-09-20T16:39:19;12.00;77.70
3842;DHT22;1936;47.074;15.336;2022-09-20T16:41:29;12.00;79.10
3842;DHT22;1936;47.074;15.336;2022-09-20T16:43:33;12.00;77.20
3842;DHT22;1936;47.074;15.336;2022-09-20T16:45:38;11.90;77.60
3842;DHT22;1936;47.074;15.336;2022-09-20T16:49:44;11.90;76.90
3842;DHT22;1936;47.074;15.336;2022-09-20T16:51:48;11.90;76.80
3842;DHT22;1936;47.074;15.336;2022-09-20T16:58:03;11.60;77.80
3842;DHT22;1936;47.074;15.336;2022-09-20T17:00:10;11.60;78.40
3842;DHT22;1936;47.074;15.336;2022-09-20T17:02:17;11.50;79.00
3842;DHT22;1936;47.074;15.336;2022-09-20T17:04:20;11.40;80.20
3842;DHT22;1936;47.074;15.336;2022-09-20T17:06:24;11.30;81.20
3842;DHT22;1936;47.074;15.336;2022-09-20T17:10:31;11.10;81.80
3842;DHT22;1936;47.074;15.336;2022-09-20T17:12:35;11.00;84.10
3842;DHT22;1936;47.074;15.336;2022-09-20T17:14:44;10.90;84.80
3842;DHT22;1936;47.074;15.336;2022-09-20T17:16:47;10.80;86.30
3842;DHT22;1936;47.074;15.336;2022-09-20T17:18:52;10.70;87.20
3842;DHT22;1936;47.074;15.336;2022-09-20T17:20:55;10.50;90.60
3842;DHT22;1936;47.074;15.336;2022-09-20T17:22:59;10.40;92.80
3842;DHT22;1936;47.074;15.336;2022-09-20T17:25:02;10.30;94.00
3842;DHT22;1936;47.074;15.336;2022-09-20T17:29:11;9.90;99.30
3842;DHT22;1936;47.074;15.336;2022-09-20T17:35:28;9.50;99.90
3842;DHT22;1936;47.074;15.336;2022-09-20T17:37:31;9.50;99.90
3842;DHT22;1936;47.074;15.336;2022-09-20T17:39:35;9.30;99.90
3842;DHT22;1936;47.074;15.336;2022-09-20T17:41:39;9.20;99.90
3842;DHT22;1936;47.074;15.336;2022-09-20T17:43:44;9.10;99.90
3842;DHT22;1936;47.074;15.336;2022-09-20T17:45:47;9.10;99.90
3842;DHT22;1936;47.074;15.336;2022-09-20T17:47:53;9.00;99.90
3842;DHT22;1936;47.074;15.336;2022-09-20T17:49:57;8.90;99.90
3842;DHT22;1936;47.074;15.336;2022-09-20T17:54:09;8.80;99.90
3842;DHT22;1936;47.074;15.336;2022-09-20T17:56:14;8.70;99.90
3842;DHT22;1936;47.074;15.336;2022-09-20T18:00:21;8.40;99.90
3842;DHT22;1936;47.074;15.336;2022-09-20T18:02:25;8.40;99.90
3842;DHT22;1936;47.074;15.336;2022-09-20T18:06:35;8.30;99.90
3842;DHT22;1936;47.074;15.336;2022-09-20T18:08:39;8.20;99.90
3842;DHT22;1936;47.074;15.336;2022-09-20T18:10:53;8.20;99.90
3842;DHT22;1936;47.074;15.336;2022-09-20T18:17:04;7.90;99.90
3842;DHT22;1936;47.074;15.336;2022-09-20T18:19:08;7.80;99.90
3842;DHT22;1936;47.074;15.336;2022-09-20T18:21:14;7.90;99.90